createdAt,value
2023-03-16T00:01:42.069Z,-0.31
2023-03-16T00:05:13.625Z,-0.31
2023-03-16T00:08:39.185Z,-0.37
2023-03-16T00:12:09.261Z,-0.40
2023-03-16T00:15:21.717Z,-0.42
2023-03-16T00:19:03.445Z,-0.45
2023-03-16T00:22:44.174Z,-0.47
2023-03-16T00:26:06.306Z,-0.52
2023-03-16T00:29:54.336Z,-0.51
2023-03-16T00:33:08.743Z,-0.45
2023-03-16T00:36:38.193Z,-0.36
2023-03-16T00:40:27.312Z,-0.30
2023-03-16T00:44:16.270Z,-0.29
2023-03-16T00:48:05.109Z,-0.21
2023-03-16T00:51:39.203Z,-0.26
2023-03-16T00:55:18.779Z,-0.32
2023-03-16T00:58:58.122Z,-0.36
2023-03-16T01:02:28.753Z,-0.32
2023-03-16T01:06:20.512Z,-0.38
2023-03-16T01:09:48.596Z,-0.36
2023-03-16T01:13:23.594Z,-0.36
2023-03-16T01:17:04.167Z,-0.32
2023-03-16T01:20:53.184Z,-0.32
2023-03-16T01:24:06.869Z,-0.35
2023-03-16T01:27:48.153Z,-0.40
2023-03-16T01:31:16.251Z,-0.38
2023-03-16T01:35:02.946Z,-0.40
2023-03-16T01:38:17.005Z,-0.36
2023-03-16T01:42:06.025Z,-0.35
2023-03-16T01:45:53.116Z,-0.30
2023-03-16T01:49:31.570Z,-0.28
2023-03-16T01:52:55.002Z,-0.23
2023-03-16T01:56:20.796Z,-0.21
2023-03-16T01:59:54.751Z,-0.15
2023-03-16T02:03:43.721Z,-0.09
2023-03-16T02:07:35.184Z,-0.08
2023-03-16T02:11:12.986Z,-0.07
2023-03-16T02:15:01.059Z,-0.06
2023-03-16T02:18:48.801Z,-0.03
2023-03-16T02:22:46.958Z,-0.15
2023-03-16T02:26:52.788Z,-0.23
2023-03-16T02:30:36.217Z,-0.20
2023-03-16T02:34:25.060Z,-0.28
2023-03-16T02:37:56.527Z,-0.21
2023-03-16T02:41:54.018Z,-0.08
2023-03-16T02:45:42.928Z,-0.07
2023-03-16T02:49:24.629Z,-0.04
2023-03-16T02:52:47.421Z,-0.09
2023-03-16T02:56:36.291Z,-0.19
2023-03-16T03:00:18.501Z,-0.21
2023-03-16T03:03:49.702Z,-0.19
2023-03-16T03:07:28.595Z,-0.25
2023-03-16T03:10:44.485Z,-0.29
2023-03-16T03:14:17.204Z,-0.34
2023-03-16T03:17:47.258Z,-0.41
2023-03-16T03:21:29.290Z,-0.51
2023-03-16T03:24:54.133Z,-0.62
2023-03-16T03:27:49.015Z,-0.59
2023-03-16T03:31:37.989Z,-0.63
2023-03-16T03:35:16.979Z,-0.65
2023-03-16T03:38:29.550Z,-0.67
2023-03-16T03:42:08.925Z,-0.70
2023-03-16T03:45:42.622Z,-0.69
2023-03-16T03:49:04.383Z,-0.67
2023-03-16T03:52:37.075Z,-0.65
2023-03-16T03:56:26.056Z,-0.63
2023-03-16T03:59:45.207Z,-0.46
2023-03-16T04:03:22.781Z,-0.45
2023-03-16T04:07:00.155Z,-0.58
2023-03-16T04:10:14.661Z,-0.56
2023-03-16T04:13:43.378Z,-0.59
2023-03-16T04:17:14.366Z,-0.61
2023-03-16T04:20:20.710Z,-0.68
2023-03-16T04:23:54.978Z,-0.82
2023-03-16T04:27:33.200Z,-0.80
2023-03-16T04:30:58.188Z,-0.77
2023-03-16T04:34:29.658Z,-0.82
2023-03-16T04:38:08.562Z,-0.85
2023-03-16T04:41:23.513Z,-0.86
2023-03-16T04:44:54.619Z,-0.88
2023-03-16T04:48:27.529Z,-0.96
2023-03-16T04:52:19.267Z,-0.94
2023-03-16T04:55:35.756Z,-0.95
2023-03-16T04:58:49.890Z,-0.96
2023-03-16T05:02:29.944Z,-0.99
2023-03-16T05:06:03.854Z,-0.99
2023-03-16T05:09:25.307Z,-1.04
2023-03-16T05:12:44.410Z,-1.03
2023-03-16T05:15:40.183Z,-1.05
2023-03-16T05:18:54.436Z,-1.08
2023-03-16T05:22:36.930Z,-1.03
2023-03-16T05:25:40.220Z,-1.09
2023-03-16T05:28:25.863Z,-1.10
2023-03-16T05:31:49.077Z,-1.10
2023-03-16T05:34:43.286Z,-1.03
2023-03-16T05:37:24.272Z,-0.94
2023-03-16T05:41:06.297Z,-0.92
2023-03-16T05:44:58.464Z,-0.93
2023-03-16T05:48:29.082Z,-0.95
2023-03-16T05:51:26.009Z,-0.87
2023-03-16T05:55:09.145Z,-0.77
2023-03-16T05:58:58.587Z,-0.64
2023-03-16T06:02:20.780Z,-0.62
2023-03-16T06:05:32.107Z,-0.58
2023-03-16T06:09:10.294Z,-0.40
2023-03-16T06:13:00.114Z,-0.35
2023-03-16T06:16:23.714Z,-0.40
2023-03-16T06:19:01.065Z,-0.47
2023-03-16T06:22:41.836Z,-0.38
2023-03-16T06:26:24.553Z,-0.24
2023-03-16T06:30:13.725Z,-0.02
2023-03-16T06:34:02.650Z,0.13
2023-03-16T06:37:35.138Z,0.32
2023-03-16T06:41:24.128Z,0.33
2023-03-16T06:45:03.246Z,0.33
2023-03-16T06:48:52.264Z,0.39
2023-03-16T06:52:39.832Z,0.56
2023-03-16T06:56:12.966Z,0.69
2023-03-16T06:59:46.868Z,0.81
2023-03-16T07:03:15.225Z,0.90
2023-03-16T07:07:04.919Z,1.04
2023-03-16T07:10:25.321Z,1.16
2023-03-16T07:14:16.584Z,1.29
2023-03-16T07:17:51.840Z,1.61
2023-03-16T07:21:40.771Z,2.75
2023-03-16T07:25:30.495Z,3.35
2023-03-16T07:29:07.913Z,3.89
2023-03-16T07:33:01.120Z,4.06
2023-03-16T07:36:31.080Z,4.36
2023-03-16T07:40:21.239Z,4.36
2023-03-16T07:44:29.672Z,4.60
2023-03-16T07:48:12.655Z,4.71
2023-03-16T07:51:56.419Z,5.07
2023-03-16T07:55:42.233Z,4.99
2023-03-16T07:59:32.782Z,4.89
2023-03-16T08:03:22.270Z,4.68
2023-03-16T08:07:13.051Z,4.68
2023-03-16T08:11:09.177Z,4.92
2023-03-16T08:14:58.552Z,4.99
2023-03-16T08:18:54.771Z,5.25
2023-03-16T08:22:31.170Z,5.35
2023-03-16T08:26:19.934Z,5.51
2023-03-16T08:30:10.007Z,5.59
2023-03-16T08:33:54.002Z,5.55
2023-03-16T08:37:43.499Z,5.71
2023-03-16T08:41:34.024Z,5.92
2023-03-16T08:45:18.022Z,5.87
2023-03-16T08:49:07.270Z,5.98
2023-03-16T08:52:57.277Z,6.29
2023-03-16T08:56:34.806Z,6.21
2023-03-16T09:00:26.131Z,6.48
2023-03-16T09:04:16.976Z,6.42
2023-03-16T09:07:50.242Z,6.44
2023-03-16T09:11:33.829Z,6.32
2023-03-16T09:15:23.502Z,6.21
2023-03-16T09:18:58.454Z,6.14
2023-03-16T09:22:50.447Z,6.07
2023-03-16T09:26:30.525Z,6.40
2023-03-16T09:30:06.089Z,6.46
2023-03-16T09:33:55.851Z,6.46
2023-03-16T09:38:04.706Z,6.34
2023-03-16T09:42:17.729Z,6.39
2023-03-16T09:46:19.196Z,6.23
2023-03-16T09:50:24.437Z,6.10
2023-03-16T09:54:30.355Z,6.36
2023-03-16T09:58:28.491Z,6.90
2023-03-16T10:02:28.273Z,6.88
2023-03-16T10:06:23.820Z,6.98
2023-03-16T10:10:10.784Z,6.89
2023-03-16T10:13:55.062Z,7.24
2023-03-16T10:17:54.313Z,7.70
2023-03-16T10:21:35.878Z,7.93
2023-03-16T10:25:50.087Z,8.05
2023-03-16T10:29:41.062Z,8.25
2023-03-16T10:33:33.209Z,8.39
2023-03-16T10:37:28.671Z,8.36
2023-03-16T10:41:17.236Z,8.97
2023-03-16T10:45:11.192Z,8.69
2023-03-16T10:48:59.538Z,8.38
2023-03-16T10:52:54.378Z,8.14
2023-03-16T10:56:49.944Z,7.81
2023-03-16T11:00:42.286Z,8.17
2023-03-16T11:04:32.279Z,8.73
2023-03-16T11:08:31.651Z,9.03
2023-03-16T11:12:22.175Z,9.16
2023-03-16T11:16:10.433Z,8.48
2023-03-16T11:20:02.326Z,8.11
2023-03-16T11:23:50.013Z,8.64
2023-03-16T11:27:45.334Z,8.89
2023-03-16T11:31:34.112Z,8.92
2023-03-16T11:34:53.641Z,9.22
2023-03-16T11:38:56.777Z,9.62
2023-03-16T11:42:54.921Z,9.66
2023-03-16T11:46:49.158Z,9.71
2023-03-16T11:50:35.999Z,9.67
2023-03-16T11:54:16.655Z,9.47
2023-03-16T11:58:18.475Z,9.38
2023-03-16T12:02:29.644Z,9.44
2023-03-16T12:06:28.294Z,9.77
2023-03-16T12:10:25.542Z,10.18
2023-03-16T12:14:15.813Z,9.96
2023-03-16T12:18:04.355Z,9.92
2023-03-16T12:21:54.326Z,9.89
2023-03-16T12:25:35.911Z,10.19
2023-03-16T12:29:10.759Z,10.74
2023-03-16T12:33:11.055Z,10.40
2023-03-16T12:37:19.674Z,10.81
2023-03-16T12:41:10.015Z,11.03
2023-03-16T12:45:03.024Z,10.66
2023-03-16T12:48:56.818Z,10.68
2023-03-16T12:52:47.946Z,10.19
2023-03-16T12:56:27.415Z,9.79
2023-03-16T13:00:21.122Z,10.41
2023-03-16T13:04:25.207Z,11.30
2023-03-16T13:08:11.819Z,11.51
2023-03-16T13:12:01.750Z,10.73
2023-03-16T13:16:01.038Z,9.73
2023-03-16T13:19:58.563Z,10.87
2023-03-16T13:23:58.311Z,11.13
2023-03-16T13:28:00.571Z,11.46
2023-03-16T13:31:44.862Z,11.58
2023-03-16T13:34:53.204Z,11.60
2023-03-16T13:38:29.570Z,11.46
2023-03-16T13:42:12.053Z,10.91
2023-03-16T13:46:12.488Z,10.79
2023-03-16T13:50:02.839Z,10.85
2023-03-16T13:54:04.593Z,10.90
2023-03-16T13:57:53.775Z,11.22
2023-03-16T14:01:43.944Z,11.30
2023-03-16T14:05:17.280Z,11.57
2023-03-16T14:09:06.045Z,12.16
2023-03-16T14:12:55.023Z,11.93
2023-03-16T14:16:24.729Z,11.59
2023-03-16T14:20:05.376Z,11.90
2023-03-16T14:23:54.248Z,11.50
2023-03-16T14:27:57.951Z,11.73
2023-03-16T14:31:36.026Z,11.03
2023-03-16T14:35:31.810Z,11.71
2023-03-16T14:39:17.803Z,12.21
2023-03-16T14:42:32.843Z,11.74
2023-03-16T14:46:02.458Z,11.66
2023-03-16T14:49:55.045Z,11.63
2023-03-16T14:53:46.364Z,11.16
2023-03-16T14:57:36.970Z,10.69
2023-03-16T15:01:26.745Z,10.60
2023-03-16T15:05:11.796Z,11.06
2023-03-16T15:08:33.574Z,11.17
2023-03-16T15:12:03.622Z,11.02
2023-03-16T15:15:38.189Z,10.88
2023-03-16T15:19:13.127Z,10.60
2023-03-16T15:21:46.684Z,10.43
2023-03-16T15:25:25.344Z,10.53
2023-03-16T15:29:20.080Z,10.39
2023-03-16T15:32:17.466Z,10.25
2023-03-16T15:35:40.957Z,10.32
2023-03-16T15:39:30.429Z,10.42
2023-03-16T15:43:12.962Z,10.66
2023-03-16T15:46:33.645Z,10.15
2023-03-16T15:50:12.931Z,10.11
2023-03-16T15:54:14.349Z,9.86
2023-03-16T15:57:55.285Z,9.48
2023-03-16T16:01:39.739Z,9.34
2023-03-16T16:05:29.437Z,9.11
2023-03-16T16:09:12.202Z,9.46
2023-03-16T16:13:02.112Z,9.44
2023-03-16T16:16:45.730Z,9.20
2023-03-16T16:20:35.562Z,9.11
2023-03-16T16:24:03.029Z,9.09
2023-03-16T16:27:52.880Z,8.91
2023-03-16T16:31:44.441Z,8.77
2023-03-16T16:35:17.616Z,8.57
2023-03-16T16:38:41.469Z,8.22
2023-03-16T16:42:13.209Z,8.00
2023-03-16T16:45:50.416Z,7.80
2023-03-16T16:49:39.734Z,7.54
2023-03-16T16:53:24.966Z,7.22
2023-03-16T16:56:54.271Z,7.31
2023-03-16T17:00:59.212Z,7.22
2023-03-16T17:04:50.510Z,7.09
2023-03-16T17:08:43.284Z,6.96
2023-03-16T17:12:33.101Z,6.71
2023-03-16T17:16:21.139Z,6.59
2023-03-16T17:19:49.162Z,6.24
2023-03-16T17:23:38.817Z,5.90
2023-03-16T17:27:18.644Z,5.57
2023-03-16T17:31:08.634Z,5.32
2023-03-16T17:35:02.958Z,5.42
2023-03-16T17:38:46.788Z,5.34
2023-03-16T17:42:32.238Z,5.16
2023-03-16T17:46:07.612Z,5.19
2023-03-16T17:49:18.846Z,5.10
2023-03-16T17:52:54.854Z,5.01
2023-03-16T17:55:55.861Z,4.86
2023-03-16T17:59:15.432Z,4.63
2023-03-16T18:02:04.665Z,4.55
2023-03-16T18:05:39.164Z,4.43
2023-03-16T18:09:10.113Z,4.34
2023-03-16T18:11:53.686Z,4.30
2023-03-16T18:15:12.737Z,4.32
2023-03-16T18:18:17.020Z,4.17
2023-03-16T18:21:04.317Z,3.93
2023-03-16T18:23:57.451Z,3.71
2023-03-16T18:27:02.073Z,3.39
2023-03-16T18:30:07.676Z,3.16
2023-03-16T18:32:57.996Z,3.09
2023-03-16T18:36:05.029Z,3.05
2023-03-16T18:39:20.861Z,2.95
2023-03-16T18:42:03.298Z,2.87
2023-03-16T18:44:42.533Z,2.89
2023-03-16T18:47:44.927Z,2.91
2023-03-16T18:50:35.453Z,2.81
2023-03-16T18:53:35.584Z,2.70
2023-03-16T18:56:20.033Z,2.60
2023-03-16T18:59:12.606Z,2.46
2023-03-16T19:02:34.201Z,2.24
2023-03-16T19:05:56.889Z,2.08
2023-03-16T19:09:09.667Z,2.13
2023-03-16T19:12:36.618Z,1.99
2023-03-16T19:16:03.963Z,1.91
2023-03-16T19:19:29.256Z,1.92
2023-03-16T19:23:07.620Z,1.94
2023-03-16T19:26:44.576Z,1.88
2023-03-16T19:30:30.823Z,1.83
2023-03-16T19:33:58.324Z,1.88
2023-03-16T19:37:08.935Z,1.77
2023-03-16T19:40:15.666Z,1.82
2023-03-16T19:42:48.242Z,1.89
2023-03-16T19:45:57.947Z,1.96
2023-03-16T19:48:47.125Z,1.99
2023-03-16T19:51:18.240Z,1.98
2023-03-16T19:54:30.374Z,1.94
2023-03-16T19:57:14.608Z,1.91
2023-03-16T20:00:12.597Z,1.58
2023-03-16T20:03:31.330Z,1.51
2023-03-16T20:07:06.434Z,1.52
2023-03-16T20:10:34.272Z,1.53
2023-03-16T20:13:51.946Z,1.45
2023-03-16T20:16:38.747Z,1.42
2023-03-16T20:19:33.837Z,1.58
2023-03-16T20:22:30.894Z,1.42
2023-03-16T20:26:02.969Z,1.32
2023-03-16T20:29:42.785Z,1.36
2023-03-16T20:33:08.092Z,1.32
2023-03-16T20:36:57.873Z,1.33
2023-03-16T20:39:52.548Z,1.38
2023-03-16T20:43:22.718Z,1.42
2023-03-16T20:47:05.971Z,1.40
2023-03-16T20:50:39.058Z,1.40
2023-03-16T20:54:17.427Z,1.41
2023-03-16T20:57:44.442Z,1.46
2023-03-16T21:01:17.964Z,1.38
2023-03-16T21:05:07.271Z,1.28
2023-03-16T21:08:57.391Z,1.22
2023-03-16T21:12:47.077Z,1.09
2023-03-16T21:16:09.032Z,1.20
2023-03-16T21:19:39.645Z,1.26
2023-03-16T21:23:13.099Z,1.30
2023-03-16T21:26:47.453Z,1.44
2023-03-16T21:30:13.680Z,1.53
2023-03-16T21:34:01.702Z,1.48
2023-03-16T21:37:33.902Z,1.67
2023-03-16T21:41:02.094Z,1.56
2023-03-16T21:44:28.413Z,1.44
2023-03-16T21:48:20.497Z,1.43
2023-03-16T21:52:02.536Z,1.44
2023-03-16T21:55:29.234Z,1.39
2023-03-16T21:59:18.520Z,1.40
2023-03-16T22:03:13.881Z,1.38
2023-03-16T22:06:45.178Z,1.28
2023-03-16T22:10:08.119Z,1.21
2023-03-16T22:13:57.653Z,1.17
2023-03-16T22:17:45.768Z,1.28
2023-03-16T22:21:28.069Z,1.33
2023-03-16T22:25:11.506Z,1.36
2023-03-16T22:29:00.697Z,1.35
2023-03-16T22:32:50.011Z,1.37
2023-03-16T22:36:40.242Z,1.62
2023-03-16T22:40:21.856Z,1.63
2023-03-16T22:43:58.346Z,1.45
2023-03-16T22:47:23.878Z,1.37
2023-03-16T22:51:15.808Z,1.46
2023-03-16T22:54:56.682Z,1.50
2023-03-16T22:58:51.992Z,1.57
2023-03-16T23:02:28.737Z,1.59
2023-03-16T23:06:03.711Z,1.60
2023-03-16T23:09:55.679Z,1.61
2023-03-16T23:13:36.522Z,1.62
2023-03-16T23:17:25.615Z,1.63
2023-03-16T23:21:17.450Z,1.67
2023-03-16T23:25:00.007Z,1.69
2023-03-16T23:28:31.106Z,1.65
2023-03-16T23:32:20.060Z,1.62
2023-03-16T23:36:17.893Z,1.54
2023-03-16T23:39:47.901Z,1.39
2023-03-16T23:43:36.786Z,1.38
2023-03-16T23:47:20.511Z,1.40
2023-03-16T23:51:09.656Z,1.37
2023-03-16T23:54:42.061Z,1.38
2023-03-16T23:58:04.849Z,1.46
